sensor_id;sensor_type;location;lat;lon;timestamp;temperature;humidity
6210;DHT22;3138;52.550;13.148;2022-12-17T00:02:21;-2.20;99.90
6210;DHT22;3138;52.550;13.148;2022-12-17T00:05:07;-2.20;99.90
6210;DHT22;3138;52.550;13.148;2022-12-17T00:07:55;-2.20;99.90
6210;DHT22;3138;52.550;13.148;2022-12-17T00:10:40;-2.10;99.90
6210;DHT22;3138;52.550;13.148;2022-12-17T00:13:24;-2.20;99.90
6210;DHT22;3138;52.550;13.148;2022-12-17T00:16:08;-2.20;99.90
6210;DHT22;3138;52.550;13.148;2022-12-17T00:18:54;-2.10;99.90
6210;DHT22;3138;52.550;13.148;2022-12-17T00:21:38;-2.20;99.90
6210;DHT22;3138;52.550;13.148;2022-12-17T00:24:22;-2.10;99.90
6210;DHT22;3138;52.550;13.148;2022-12-17T00:27:07;-2.10;99.90
6210;DHT22;3138;52.550;13.148;2022-12-17T00:29:51;-2.10;99.90
6210;DHT22;3138;52.550;13.148;2022-12-17T00:32:35;-2.10;99.90
6210;DHT22;3138;52.550;13.148;2022-12-17T00:35:21;-2.10;99.90
6210;DHT22;3138;52.550;13.148;2022-12-17T00:38:04;-2.10;99.90
6210;DHT22;3138;52.550;13.148;2022-12-17T00:40:50;-2.10;99.90
6210;DHT22;3138;52.550;13.148;2022-12-17T00:43:34;-2.00;99.90
6210;DHT22;3138;52.550;13.148;2022-12-17T00:46:18;-2.00;99.90
6210;DHT22;3138;52.550;13.148;2022-12-17T00:49:02;-2.10;99.90
6210;DHT22;3138;52.550;13.148;2022-12-17T00:51:48;-2.00;99.90
6210;DHT22;3138;52.550;13.148;2022-12-17T00:54:35;-2.00;99.90
6210;DHT22;3138;52.550;13.148;2022-12-17T00:57:20;-2.00;99.90
6210;DHT22;3138;52.550;13.148;2022-12-17T01:00:04;-2.00;99.90
6210;DHT22;3138;52.550;13.148;2022-12-17T01:03:05;-2.00;99.90
6210;DHT22;3138;52.550;13.148;2022-12-17T01:05:50;-2.10;99.90
6210;DHT22;3138;52.550;13.148;2022-12-17T01:08:35;-2.00;99.90
6210;DHT22;3138;52.550;13.148;2022-12-17T01:11:20;-2.10;99.90
6210;DHT22;3138;52.550;13.148;2022-12-17T01:14:04;-2.10;99.90
6210;DHT22;3138;52.550;13.148;2022-12-17T01:16:48;-2.10;99.90
6210;DHT22;3138;52.550;13.148;2022-12-17T01:19:29;-2.10;99.90
6210;DHT22;3138;52.550;13.148;2022-12-17T01:22:13;-2.20;99.90
6210;DHT22;3138;52.550;13.148;2022-12-17T01:24:59;-2.20;99.90
6210;DHT22;3138;52.550;13.148;2022-12-17T01:27:47;-2.20;99.90
6210;DHT22;3138;52.550;13.148;2022-12-17T01:30:31;-2.20;99.90
6210;DHT22;3138;52.550;13.148;2022-12-17T01:33:15;-2.10;99.90
6210;DHT22;3138;52.550;13.148;2022-12-17T01:35:59;-2.20;99.90
6210;DHT22;3138;52.550;13.148;2022-12-17T01:38:44;-2.20;99.90
6210;DHT22;3138;52.550;13.148;2022-12-17T01:41:30;-2.20;99.90
6210;DHT22;3138;52.550;13.148;2022-12-17T01:44:44;-2.20;99.90
6210;DHT22;3138;52.550;13.148;2022-12-17T01:47:33;-2.20;99.90
6210;DHT22;3138;52.550;13.148;2022-12-17T01:50:18;-2.30;99.90
6210;DHT22;3138;52.550;13.148;2022-12-17T01:53:05;-2.20;99.90
6210;DHT22;3138;52.550;13.148;2022-12-17T01:55:51;-2.30;99.90
6210;DHT22;3138;52.550;13.148;2022-12-17T01:58:38;-2.30;99.90
6210;DHT22;3138;52.550;13.148;2022-12-17T02:01:23;-2.30;99.90
6210;DHT22;3138;52.550;13.148;2022-12-17T02:04:08;-2.30;99.90
6210;DHT22;3138;52.550;13.148;2022-12-17T02:07:00;-2.40;99.90
6210;DHT22;3138;52.550;13.148;2022-12-17T02:09:51;-2.40;99.90
6210;DHT22;3138;52.550;13.148;2022-12-17T02:12:42;-2.40;99.90
6210;DHT22;3138;52.550;13.148;2022-12-17T02:15:35;-2.40;99.90
6210;DHT22;3138;52.550;13.148;2022-12-17T02:18:26;-2.40;99.90
6210;DHT22;3138;52.550;13.148;2022-12-17T02:21:13;-2.40;99.90
6210;DHT22;3138;52.550;13.148;2022-12-17T02:24:06;-2.30;99.90
6210;DHT22;3138;52.550;13.148;2022-12-17T02:26:56;-2.30;99.90
6210;DHT22;3138;52.550;13.148;2022-12-17T02:29:45;-2.40;99.90
6210;DHT22;3138;52.550;13.148;2022-12-17T02:32:33;-2.30;99.90
6210;DHT22;3138;52.550;13.148;2022-12-17T02:35:21;-2.30;99.90
6210;DHT22;3138;52.550;13.148;2022-12-17T02:38:16;-2.30;99.90
6210;DHT22;3138;52.550;13.148;2022-12-17T02:41:02;-2.40;99.90
6210;DHT22;3138;52.550;13.148;2022-12-17T02:43:48;-2.30;99.90
6210;DHT22;3138;52.550;13.148;2022-12-17T02:46:32;-2.30;99.90
6210;DHT22;3138;52.550;13.148;2022-12-17T02:49:17;-2.30;99.90
6210;DHT22;3138;52.550;13.148;2022-12-17T02:52:02;-2.30;99.90
6210;DHT22;3138;52.550;13.148;2022-12-17T02:54:47;-2.30;99.90
6210;DHT22;3138;52.550;13.148;2022-12-17T02:57:31;-2.20;99.90
6210;DHT22;3138;52.550;13.148;2022-12-17T03:00:16;-2.20;99.90
6210;DHT22;3138;52.550;13.148;2022-12-17T03:03:01;-2.20;99.90
6210;DHT22;3138;52.550;13.148;2022-12-17T03:05:45;-2.20;99.90
6210;DHT22;3138;52.550;13.148;2022-12-17T03:08:29;-2.20;99.90
6210;DHT22;3138;52.550;13.148;2022-12-17T03:11:13;-2.30;99.90
6210;DHT22;3138;52.550;13.148;2022-12-17T03:13:57;-2.30;99.90
6210;DHT22;3138;52.550;13.148;2022-12-17T03:16:43;-2.30;99.90
6210;DHT22;3138;52.550;13.148;2022-12-17T03:19:27;-2.30;99.90
6210;DHT22;3138;52.550;13.148;2022-12-17T03:22:12;-2.40;99.90
6210;DHT22;3138;52.550;13.148;2022-12-17T03:24:56;-2.40;99.90
6210;DHT22;3138;52.550;13.148;2022-12-17T03:27:40;-2.30;99.90
6210;DHT22;3138;52.550;13.148;2022-12-17T03:30:24;-2.30;99.90
6210;DHT22;3138;52.550;13.148;2022-12-17T03:33:10;-2.30;99.90
6210;DHT22;3138;52.550;13.148;2022-12-17T03:35:54;-2.40;99.90
6210;DHT22;3138;52.550;13.148;2022-12-17T03:38:38;-2.30;99.90
6210;DHT22;3138;52.550;13.148;2022-12-17T03:41:23;-2.50;99.90
6210;DHT22;3138;52.550;13.148;2022-12-17T03:44:07;-2.60;99.90
6210;DHT22;3138;52.550;13.148;2022-12-17T03:46:51;-2.50;99.90
6210;DHT22;3138;52.550;13.148;2022-12-17T03:49:37;-2.50;99.90
6210;DHT22;3138;52.550;13.148;2022-12-17T03:52:21;-2.50;99.90
6210;DHT22;3138;52.550;13.148;2022-12-17T03:55:06;-2.50;99.90
6210;DHT22;3138;52.550;13.148;2022-12-17T03:57:50;-2.50;99.90
6210;DHT22;3138;52.550;13.148;2022-12-17T04:00:49;-2.40;99.90
6210;DHT22;3138;52.550;13.148;2022-12-17T04:03:34;-2.40;99.90
6210;DHT22;3138;52.550;13.148;2022-12-17T04:06:19;-2.50;99.90
6210;DHT22;3138;52.550;13.148;2022-12-17T04:09:03;-2.50;99.90
6210;DHT22;3138;52.550;13.148;2022-12-17T04:11:47;-2.40;99.90
6210;DHT22;3138;52.550;13.148;2022-12-17T04:14:31;-2.50;99.90
6210;DHT22;3138;52.550;13.148;2022-12-17T04:17:21;-2.50;99.90
6210;DHT22;3138;52.550;13.148;2022-12-17T04:20:05;-2.40;99.90
6210;DHT22;3138;52.550;13.148;2022-12-17T04:22:51;-2.40;99.90
6210;DHT22;3138;52.550;13.148;2022-12-17T04:25:35;-2.40;99.90
6210;DHT22;3138;52.550;13.148;2022-12-17T04:28:19;-2.40;99.90
6210;DHT22;3138;52.550;13.148;2022-12-17T04:31:05;-2.40;99.90
6210;DHT22;3138;52.550;13.148;2022-12-17T04:33:49;-2.60;99.90
6210;DHT22;3138;52.550;13.148;2022-12-17T04:36:33;-2.50;99.90
6210;DHT22;3138;52.550;13.148;2022-12-17T04:39:19;-2.50;99.90
6210;DHT22;3138;52.550;13.148;2022-12-17T04:42:03;-2.50;99.90
6210;DHT22;3138;52.550;13.148;2022-12-17T04:44:47;-2.50;99.90
6210;DHT22;3138;52.550;13.148;2022-12-17T04:47:31;-2.40;99.90
6210;DHT22;3138;52.550;13.148;2022-12-17T04:50:16;-2.40;99.90
6210;DHT22;3138;52.550;13.148;2022-12-17T04:53:00;-2.40;99.90
6210;DHT22;3138;52.550;13.148;2022-12-17T04:55:46;-2.40;99.90
6210;DHT22;3138;52.550;13.148;2022-12-17T04:58:31;-2.40;99.90
6210;DHT22;3138;52.550;13.148;2022-12-17T05:01:15;-2.40;99.90
6210;DHT22;3138;52.550;13.148;2022-12-17T05:03:59;-2.30;99.90
6210;DHT22;3138;52.550;13.148;2022-12-17T05:06:43;-2.40;99.90
6210;DHT22;3138;52.550;13.148;2022-12-17T05:09:28;-2.40;99.90
6210;DHT22;3138;52.550;13.148;2022-12-17T05:12:13;-2.40;99.90
6210;DHT22;3138;52.550;13.148;2022-12-17T05:14:57;-2.40;99.90
6210;DHT22;3138;52.550;13.148;2022-12-17T05:17:42;-2.40;99.90
6210;DHT22;3138;52.550;13.148;2022-12-17T05:20:26;-2.40;99.90
6210;DHT22;3138;52.550;13.148;2022-12-17T05:23:10;-2.40;99.90
6210;DHT22;3138;52.550;13.148;2022-12-17T05:26:03;-2.40;99.90
6210;DHT22;3138;52.550;13.148;2022-12-17T05:28:48;-2.40;99.90
6210;DHT22;3138;52.550;13.148;2022-12-17T05:31:35;-2.40;99.90
6210;DHT22;3138;52.550;13.148;2022-12-17T05:34:19;-2.40;99.90
6210;DHT22;3138;52.550;13.148;2022-12-17T05:37:03;-2.40;99.90
6210;DHT22;3138;52.550;13.148;2022-12-17T05:39:48;-2.40;99.90
6210;DHT22;3138;52.550;13.148;2022-12-17T05:42:32;-2.40;99.90
6210;DHT22;3138;52.550;13.148;2022-12-17T05:45:17;-2.50;99.90
6210;DHT22;3138;52.550;13.148;2022-12-17T05:48:02;-2.40;99.90
6210;DHT22;3138;52.550;13.148;2022-12-17T05:50:48;-2.40;99.90
6210;DHT22;3138;52.550;13.148;2022-12-17T05:53:33;-2.40;99.90
6210;DHT22;3138;52.550;13.148;2022-12-17T05:56:17;-2.60;99.90
6210;DHT22;3138;52.550;13.148;2022-12-17T05:59:01;-2.50;99.90
6210;DHT22;3138;52.550;13.148;2022-12-17T06:01:47;-2.50;99.90
6210;DHT22;3138;52.550;13.148;2022-12-17T06:04:32;-2.40;99.90
6210;DHT22;3138;52.550;13.148;2022-12-17T06:07:16;-2.30;99.90
6210;DHT22;3138;52.550;13.148;2022-12-17T06:10:00;-2.40;99.90
6210;DHT22;3138;52.550;13.148;2022-12-17T06:12:53;-2.40;99.90
6210;DHT22;3138;52.550;13.148;2022-12-17T06:15:38;-2.30;99.90
6210;DHT22;3138;52.550;13.148;2022-12-17T06:18:23;-2.40;99.90
6210;DHT22;3138;52.550;13.148;2022-12-17T06:21:07;-2.40;99.90
6210;DHT22;3138;52.550;13.148;2022-12-17T06:23:52;-2.40;99.90
6210;DHT22;3138;52.550;13.148;2022-12-17T06:26:36;-2.40;99.90
6210;DHT22;3138;52.550;13.148;2022-12-17T06:29:20;-2.50;99.90
6210;DHT22;3138;52.550;13.148;2022-12-17T06:32:04;-2.40;99.90
6210;DHT22;3138;52.550;13.148;2022-12-17T06:34:50;-2.40;99.90
6210;DHT22;3138;52.550;13.148;2022-12-17T06:37:34;-2.40;99.90
6210;DHT22;3138;52.550;13.148;2022-12-17T06:40:18;-2.30;99.90
6210;DHT22;3138;52.550;13.148;2022-12-17T06:43:02;-2.30;99.90
6210;DHT22;3138;52.550;13.148;2022-12-17T06:45:46;-2.30;99.90
6210;DHT22;3138;52.550;13.148;2022-12-17T06:48:31;-2.20;99.90
6210;DHT22;3138;52.550;13.148;2022-12-17T06:51:16;-2.30;99.90
6210;DHT22;3138;52.550;13.148;2022-12-17T06:54:00;-2.30;99.90
6210;DHT22;3138;52.550;13.148;2022-12-17T06:56:45;-2.40;99.90
6210;DHT22;3138;52.550;13.148;2022-12-17T06:59:29;-2.40;99.90
6210;DHT22;3138;52.550;13.148;2022-12-17T07:02:13;-2.40;99.90
6210;DHT22;3138;52.550;13.148;2022-12-17T07:04:57;-2.50;99.90
6210;DHT22;3138;52.550;13.148;2022-12-17T07:07:43;-2.40;99.90
6210;DHT22;3138;52.550;13.148;2022-12-17T07:10:27;-2.50;99.90
6210;DHT22;3138;52.550;13.148;2022-12-17T07:13:11;-2.50;99.90
6210;DHT22;3138;52.550;13.148;2022-12-17T07:15:55;-2.60;99.90
6210;DHT22;3138;52.550;13.148;2022-12-17T07:18:39;-2.60;99.90
6210;DHT22;3138;52.550;13.148;2022-12-17T07:21:24;-2.60;99.90
6210;DHT22;3138;52.550;13.148;2022-12-17T07:24:10;-2.50;99.90
6210;DHT22;3138;52.550;13.148;2022-12-17T07:26:54;-2.50;99.90
6210;DHT22;3138;52.550;13.148;2022-12-17T07:29:38;-2.60;99.90
6210;DHT22;3138;52.550;13.148;2022-12-17T07:32:23;-2.60;99.90
6210;DHT22;3138;52.550;13.148;2022-12-17T07:35:07;-2.50;99.90
6210;DHT22;3138;52.550;13.148;2022-12-17T07:37:57;-2.50;99.90
6210;DHT22;3138;52.550;13.148;2022-12-17T07:40:43;-2.30;99.90
6210;DHT22;3138;52.550;13.148;2022-12-17T07:43:24;-2.30;99.90
6210;DHT22;3138;52.550;13.148;2022-12-17T07:46:08;-2.40;99.90
6210;DHT22;3138;52.550;13.148;2022-12-17T07:48:53;-2.50;99.90
6210;DHT22;3138;52.550;13.148;2022-12-17T07:51:37;-2.40;99.90
6210;DHT22;3138;52.550;13.148;2022-12-17T07:54:21;-2.40;99.90
6210;DHT22;3138;52.550;13.148;2022-12-17T07:57:07;-2.40;99.90
6210;DHT22;3138;52.550;13.148;2022-12-17T07:59:51;-2.40;99.90
6210;DHT22;3138;52.550;13.148;2022-12-17T08:02:35;-2.40;99.90
6210;DHT22;3138;52.550;13.148;2022-12-17T08:05:20;-2.30;99.90
6210;DHT22;3138;52.550;13.148;2022-12-17T08:08:08;-2.30;99.90
6210;DHT22;3138;52.550;13.148;2022-12-17T08:10:52;-2.20;99.90
6210;DHT22;3138;52.550;13.148;2022-12-17T08:13:37;-2.20;99.90
6210;DHT22;3138;52.550;13.148;2022-12-17T08:16:22;-2.30;99.90
6210;DHT22;3138;52.550;13.148;2022-12-17T08:19:06;-2.20;99.90
6210;DHT22;3138;52.550;13.148;2022-12-17T08:21:51;-2.20;99.90
6210;DHT22;3138;52.550;13.148;2022-12-17T08:24:36;-2.20;99.90
6210;DHT22;3138;52.550;13.148;2022-12-17T08:27:20;-2.10;99.90
6210;DHT22;3138;52.550;13.148;2022-12-17T08:30:06;-2.20;99.90
6210;DHT22;3138;52.550;13.148;2022-12-17T08:32:51;-2.20;99.90
6210;DHT22;3138;52.550;13.148;2022-12-17T08:35:35;-2.20;99.90
6210;DHT22;3138;52.550;13.148;2022-12-17T08:38:19;-2.10;99.90
6210;DHT22;3138;52.550;13.148;2022-12-17T08:41:04;-2.10;99.90
6210;DHT22;3138;52.550;13.148;2022-12-17T08:43:48;-2.00;99.90
6210;DHT22;3138;52.550;13.148;2022-12-17T08:46:42;-2.00;99.90
6210;DHT22;3138;52.550;13.148;2022-12-17T08:49:30;-2.00;99.90
6210;DHT22;3138;52.550;13.148;2022-12-17T08:52:14;-2.00;99.90
6210;DHT22;3138;52.550;13.148;2022-12-17T08:54:58;-2.10;99.90
6210;DHT22;3138;52.550;13.148;2022-12-17T08:57:51;-2.20;99.90
6210;DHT22;3138;52.550;13.148;2022-12-17T09:00:36;-2.00;99.90
6210;DHT22;3138;52.550;13.148;2022-12-17T09:03:21;-2.30;99.90
6210;DHT22;3138;52.550;13.148;2022-12-17T09:06:06;-2.10;99.90
6210;DHT22;3138;52.550;13.148;2022-12-17T09:08:50;-2.10;99.90
6210;DHT22;3138;52.550;13.148;2022-12-17T09:11:34;-2.00;99.90
6210;DHT22;3138;52.550;13.148;2022-12-17T09:14:18;-1.90;99.90
6210;DHT22;3138;52.550;13.148;2022-12-17T09:17:03;-2.00;99.90
6210;DHT22;3138;52.550;13.148;2022-12-17T09:19:48;-2.10;99.90
6210;DHT22;3138;52.550;13.148;2022-12-17T09:22:33;-2.00;99.90
6210;DHT22;3138;52.550;13.148;2022-12-17T09:25:17;-2.10;99.90
6210;DHT22;3138;52.550;13.148;2022-12-17T09:27:59;-2.00;99.90
6210;DHT22;3138;52.550;13.148;2022-12-17T09:30:44;-2.00;99.90
6210;DHT22;3138;52.550;13.148;2022-12-17T09:33:29;-2.00;99.90
6210;DHT22;3138;52.550;13.148;2022-12-17T09:36:14;-2.00;99.90
6210;DHT22;3138;52.550;13.148;2022-12-17T09:38:58;-2.20;99.90
6210;DHT22;3138;52.550;13.148;2022-12-17T09:41:49;-2.10;99.90
6210;DHT22;3138;52.550;13.148;2022-12-17T09:44:43;-2.10;99.90
6210;DHT22;3138;52.550;13.148;2022-12-17T09:47:38;-2.20;99.90
6210;DHT22;3138;52.550;13.148;2022-12-17T09:50:26;-2.20;99.90
6210;DHT22;3138;52.550;13.148;2022-12-17T09:53:19;-2.50;99.90
6210;DHT22;3138;52.550;13.148;2022-12-17T09:56:01;-2.50;99.90
6210;DHT22;3138;52.550;13.148;2022-12-17T09:58:47;-2.50;99.90
6210;DHT22;3138;52.550;13.148;2022-12-17T10:01:33;-2.60;99.90
6210;DHT22;3138;52.550;13.148;2022-12-17T10:04:23;-2.40;99.90
6210;DHT22;3138;52.550;13.148;2022-12-17T10:07:20;-2.40;99.90
6210;DHT22;3138;52.550;13.148;2022-12-17T10:10:15;-2.40;99.90
6210;DHT22;3138;52.550;13.148;2022-12-17T10:12:59;-2.40;99.90
6210;DHT22;3138;52.550;13.148;2022-12-17T10:15:44;-2.20;99.90
6210;DHT22;3138;52.550;13.148;2022-12-17T10:18:28;-2.30;99.90
6210;DHT22;3138;52.550;13.148;2022-12-17T10:21:17;-2.10;99.90
6210;DHT22;3138;52.550;13.148;2022-12-17T10:24:06;-2.10;99.90
6210;DHT22;3138;52.550;13.148;2022-12-17T10:26:52;-2.00;99.90
6210;DHT22;3138;52.550;13.148;2022-12-17T10:29:36;-2.00;99.90
6210;DHT22;3138;52.550;13.148;2022-12-17T10:32:37;-2.00;99.90
6210;DHT22;3138;52.550;13.148;2022-12-17T10:35:23;-2.20;99.90
6210;DHT22;3138;52.550;13.148;2022-12-17T10:38:12;-2.30;99.90
6210;DHT22;3138;52.550;13.148;2022-12-17T10:41:01;-2.40;99.90
6210;DHT22;3138;52.550;13.148;2022-12-17T10:43:47;-2.30;99.90
6210;DHT22;3138;52.550;13.148;2022-12-17T10:46:32;-2.30;99.90
6210;DHT22;3138;52.550;13.148;2022-12-17T10:49:18;-2.10;99.90
6210;DHT22;3138;52.550;13.148;2022-12-17T10:52:05;-2.20;99.90
6210;DHT22;3138;52.550;13.148;2022-12-17T10:54:59;-2.30;99.90
6210;DHT22;3138;52.550;13.148;2022-12-17T10:57:44;-2.30;99.90
6210;DHT22;3138;52.550;13.148;2022-12-17T11:00:33;-2.40;99.90
6210;DHT22;3138;52.550;13.148;2022-12-17T11:03:31;-2.30;99.90
6210;DHT22;3138;52.550;13.148;2022-12-17T11:06:21;-2.30;99.90
6210;DHT22;3138;52.550;13.148;2022-12-17T11:09:13;-2.40;99.90
6210;DHT22;3138;52.550;13.148;2022-12-17T11:12:01;-2.40;99.90
6210;DHT22;3138;52.550;13.148;2022-12-17T11:14:51;-2.30;99.90
6210;DHT22;3138;52.550;13.148;2022-12-17T11:17:39;-2.40;99.90
6210;DHT22;3138;52.550;13.148;2022-12-17T11:20:28;-2.30;99.90
6210;DHT22;3138;52.550;13.148;2022-12-17T11:23:17;-2.20;99.90
6210;DHT22;3138;52.550;13.148;2022-12-17T11:26:05;-2.10;99.90
6210;DHT22;3138;52.550;13.148;2022-12-17T11:28:51;-2.10;99.90
6210;DHT22;3138;52.550;13.148;2022-12-17T11:31:45;-2.30;99.90
6210;DHT22;3138;52.550;13.148;2022-12-17T11:34:43;-2.20;99.90
6210;DHT22;3138;52.550;13.148;2022-12-17T11:37:33;-2.20;99.90
6210;DHT22;3138;52.550;13.148;2022-12-17T11:40:22;-2.30;99.90
6210;DHT22;3138;52.550;13.148;2022-12-17T11:43:15;-2.30;99.90
6210;DHT22;3138;52.550;13.148;2022-12-17T11:46:11;-2.30;99.90
6210;DHT22;3138;52.550;13.148;2022-12-17T11:49:02;-2.40;99.90
6210;DHT22;3138;52.550;13.148;2022-12-17T11:51:54;-2.50;99.90
6210;DHT22;3138;52.550;13.148;2022-12-17T11:54:47;-2.70;99.90
6210;DHT22;3138;52.550;13.148;2022-12-17T11:57:38;-2.60;99.90
6210;DHT22;3138;52.550;13.148;2022-12-17T12:00:26;-2.50;99.90
6210;DHT22;3138;52.550;13.148;2022-12-17T12:03:27;-2.60;99.90
6210;DHT22;3138;52.550;13.148;2022-12-17T12:06:16;-2.50;99.90
6210;DHT22;3138;52.550;13.148;2022-12-17T12:09:12;-2.50;99.90
6210;DHT22;3138;52.550;13.148;2022-12-17T12:12:04;-2.50;99.90
6210;DHT22;3138;52.550;13.148;2022-12-17T12:14:53;-2.60;99.90
6210;DHT22;3138;52.550;13.148;2022-12-17T12:17:45;-2.50;99.90
6210;DHT22;3138;52.550;13.148;2022-12-17T12:20:51;-2.50;99.90
6210;DHT22;3138;52.550;13.148;2022-12-17T12:23:45;-2.60;99.90
6210;DHT22;3138;52.550;13.148;2022-12-17T12:26:41;-2.60;99.90
6210;DHT22;3138;52.550;13.148;2022-12-17T12:29:33;-2.60;99.90
6210;DHT22;3138;52.550;13.148;2022-12-17T12:32:26;-2.60;99.90
6210;DHT22;3138;52.550;13.148;2022-12-17T12:35:15;-2.50;99.90
6210;DHT22;3138;52.550;13.148;2022-12-17T12:38:01;-2.50;99.90
6210;DHT22;3138;52.550;13.148;2022-12-17T12:40:52;-2.60;99.90
6210;DHT22;3138;52.550;13.148;2022-12-17T12:43:42;-2.50;99.90
6210;DHT22;3138;52.550;13.148;2022-12-17T12:46:37;-2.40;99.90
6210;DHT22;3138;52.550;13.148;2022-12-17T12:49:26;-2.50;99.90
6210;DHT22;3138;52.550;13.148;2022-12-17T12:52:17;-2.60;99.90
6210;DHT22;3138;52.550;13.148;2022-12-17T12:55:04;-2.50;99.90
6210;DHT22;3138;52.550;13.148;2022-12-17T12:57:56;-2.50;99.90
6210;DHT22;3138;52.550;13.148;2022-12-17T13:00:53;-2.60;99.90
6210;DHT22;3138;52.550;13.148;2022-12-17T13:03:48;-2.80;99.90
6210;DHT22;3138;52.550;13.148;2022-12-17T13:06:42;-2.80;99.90
6210;DHT22;3138;52.550;13.148;2022-12-17T13:09:35;-2.90;99.90
6210;DHT22;3138;52.550;13.148;2022-12-17T13:12:21;-2.80;99.90
6210;DHT22;3138;52.550;13.148;2022-12-17T13:14:52;-2.60;99.90
6210;DHT22;3138;52.550;13.148;2022-12-17T13:17:29;-2.40;99.90
6210;DHT22;3138;52.550;13.148;2022-12-17T13:20:19;-2.50;99.90
6210;DHT22;3138;52.550;13.148;2022-12-17T13:22:52;-2.50;99.90
6210;DHT22;3138;52.550;13.148;2022-12-17T13:25:29;-2.50;99.90
6210;DHT22;3138;52.550;13.148;2022-12-17T13:27:56;-2.50;99.90
6210;DHT22;3138;52.550;13.148;2022-12-17T13:30:31;-2.60;99.90
6210;DHT22;3138;52.550;13.148;2022-12-17T13:33:14;-2.50;99.90
6210;DHT22;3138;52.550;13.148;2022-12-17T13:35:51;-2.50;99.90
6210;DHT22;3138;52.550;13.148;2022-12-17T13:38:26;-2.70;99.90
6210;DHT22;3138;52.550;13.148;2022-12-17T13:41:04;-2.70;99.90
6210;DHT22;3138;52.550;13.148;2022-12-17T13:43:33;-2.90;99.90
6210;DHT22;3138;52.550;13.148;2022-12-17T13:46:04;-3.00;99.90
6210;DHT22;3138;52.550;13.148;2022-12-17T13:48:32;-2.90;99.90
6210;DHT22;3138;52.550;13.148;2022-12-17T13:51:01;-3.00;99.90
6210;DHT22;3138;52.550;13.148;2022-12-17T13:53:30;-2.90;99.90
6210;DHT22;3138;52.550;13.148;2022-12-17T13:55:59;-3.00;99.90
6210;DHT22;3138;52.550;13.148;2022-12-17T13:58:28;-3.00;99.90
6210;DHT22;3138;52.550;13.148;2022-12-17T14:01:05;-3.00;99.90
6210;DHT22;3138;52.550;13.148;2022-12-17T14:03:35;-3.00;99.90
6210;DHT22;3138;52.550;13.148;2022-12-17T14:06:02;-2.90;99.90
6210;DHT22;3138;52.550;13.148;2022-12-17T14:08:31;-2.80;99.90
6210;DHT22;3138;52.550;13.148;2022-12-17T14:10:59;-2.80;99.90
6210;DHT22;3138;52.550;13.148;2022-12-17T14:13:41;-2.90;99.90
6210;DHT22;3138;52.550;13.148;2022-12-17T14:16:09;-2.90;99.90
6210;DHT22;3138;52.550;13.148;2022-12-17T14:18:42;-3.00;99.90
6210;DHT22;3138;52.550;13.148;2022-12-17T14:21:12;-3.00;99.90
6210;DHT22;3138;52.550;13.148;2022-12-17T14:23:39;-3.00;99.90
6210;DHT22;3138;52.550;13.148;2022-12-17T14:26:08;-3.00;99.90
6210;DHT22;3138;52.550;13.148;2022-12-17T14:28:43;-3.00;99.90
6210;DHT22;3138;52.550;13.148;2022-12-17T14:31:17;-3.00;99.90
6210;DHT22;3138;52.550;13.148;2022-12-17T14:33:45;-3.10;99.90
6210;DHT22;3138;52.550;13.148;2022-12-17T14:36:20;-3.10;99.90
6210;DHT22;3138;52.550;13.148;2022-12-17T14:38:52;-3.20;99.90
6210;DHT22;3138;52.550;13.148;2022-12-17T14:41:20;-3.10;99.90
6210;DHT22;3138;52.550;13.148;2022-12-17T14:44:05;-3.20;99.90
6210;DHT22;3138;52.550;13.148;2022-12-17T14:46:33;-3.20;99.90
6210;DHT22;3138;52.550;13.148;2022-12-17T14:49:02;-3.20;99.90
6210;DHT22;3138;52.550;13.148;2022-12-17T14:51:33;-3.30;99.90
6210;DHT22;3138;52.550;13.148;2022-12-17T14:54:15;-3.30;99.90
6210;DHT22;3138;52.550;13.148;2022-12-17T14:56:43;-3.20;99.90
6210;DHT22;3138;52.550;13.148;2022-12-17T14:59:22;-3.20;99.90
6210;DHT22;3138;52.550;13.148;2022-12-17T15:01:49;-3.10;99.90
6210;DHT22;3138;52.550;13.148;2022-12-17T15:04:17;-3.10;99.90
6210;DHT22;3138;52.550;13.148;2022-12-17T15:06:44;-3.20;99.90
6210;DHT22;3138;52.550;13.148;2022-12-17T15:09:12;-3.10;99.90
6210;DHT22;3138;52.550;13.148;2022-12-17T15:11:39;-3.20;99.90
6210;DHT22;3138;52.550;13.148;2022-12-17T15:14:06;-3.30;99.90
6210;DHT22;3138;52.550;13.148;2022-12-17T15:16:33;-3.30;99.90
6210;DHT22;3138;52.550;13.148;2022-12-17T15:18:59;-3.20;99.90
6210;DHT22;3138;52.550;13.148;2022-12-17T15:21:28;-3.30;99.90
6210;DHT22;3138;52.550;13.148;2022-12-17T15:23:55;-3.30;99.90
6210;DHT22;3138;52.550;13.148;2022-12-17T15:26:22;-3.30;99.90
6210;DHT22;3138;52.550;13.148;2022-12-17T15:28:49;-3.30;99.90
6210;DHT22;3138;52.550;13.148;2022-12-17T15:31:16;-3.40;99.90
6210;DHT22;3138;52.550;13.148;2022-12-17T15:33:42;-3.30;99.90
6210;DHT22;3138;52.550;13.148;2022-12-17T15:36:10;-3.30;99.90
6210;DHT22;3138;52.550;13.148;2022-12-17T15:38:38;-3.40;99.90
6210;DHT22;3138;52.550;13.148;2022-12-17T15:41:05;-3.50;99.90
6210;DHT22;3138;52.550;13.148;2022-12-17T15:43:46;-3.60;99.90
6210;DHT22;3138;52.550;13.148;2022-12-17T15:46:13;-3.60;99.90
6210;DHT22;3138;52.550;13.148;2022-12-17T15:48:40;-3.60;99.90
6210;DHT22;3138;52.550;13.148;2022-12-17T15:51:08;-3.70;99.90
6210;DHT22;3138;52.550;13.148;2022-12-17T15:53:35;-3.60;99.90
6210;DHT22;3138;52.550;13.148;2022-12-17T15:56:04;-3.60;99.90
6210;DHT22;3138;52.550;13.148;2022-12-17T15:58:31;-3.50;99.90
6210;DHT22;3138;52.550;13.148;2022-12-17T16:00:57;-3.50;99.90
6210;DHT22;3138;52.550;13.148;2022-12-17T16:03:24;-3.50;99.90
6210;DHT22;3138;52.550;13.148;2022-12-17T16:05:51;-3.50;99.90
6210;DHT22;3138;52.550;13.148;2022-12-17T16:08:18;-3.50;99.90
6210;DHT22;3138;52.550;13.148;2022-12-17T16:10:45;-3.40;99.90
6210;DHT22;3138;52.550;13.148;2022-12-17T16:13:13;-3.40;99.90
6210;DHT22;3138;52.550;13.148;2022-12-17T16:15:40;-3.40;99.90
6210;DHT22;3138;52.550;13.148;2022-12-17T16:18:07;-3.50;99.90
6210;DHT22;3138;52.550;13.148;2022-12-17T16:20:33;-3.50;99.90
6210;DHT22;3138;52.550;13.148;2022-12-17T16:23:00;-3.60;99.90
6210;DHT22;3138;52.550;13.148;2022-12-17T16:25:27;-3.60;99.90
6210;DHT22;3138;52.550;13.148;2022-12-17T16:27:54;-3.80;99.90
6210;DHT22;3138;52.550;13.148;2022-12-17T16:30:22;-3.70;99.90
6210;DHT22;3138;52.550;13.148;2022-12-17T16:32:49;-3.80;99.90
6210;DHT22;3138;52.550;13.148;2022-12-17T16:35:16;-3.70;99.90
6210;DHT22;3138;52.550;13.148;2022-12-17T16:37:43;-3.70;99.90
6210;DHT22;3138;52.550;13.148;2022-12-17T16:40:10;-3.70;99.90
6210;DHT22;3138;52.550;13.148;2022-12-17T16:42:37;-3.60;99.90
6210;DHT22;3138;52.550;13.148;2022-12-17T16:45:05;-3.60;99.90
6210;DHT22;3138;52.550;13.148;2022-12-17T16:47:33;-3.50;99.90
6210;DHT22;3138;52.550;13.148;2022-12-17T16:50:00;-3.60;99.90
6210;DHT22;3138;52.550;13.148;2022-12-17T16:52:27;-3.60;99.90
6210;DHT22;3138;52.550;13.148;2022-12-17T16:54:54;-3.60;99.90
6210;DHT22;3138;52.550;13.148;2022-12-17T16:57:21;-3.60;99.90
6210;DHT22;3138;52.550;13.148;2022-12-17T16:59:48;-3.60;99.90
6210;DHT22;3138;52.550;13.148;2022-12-17T17:02:15;-3.60;99.90
6210;DHT22;3138;52.550;13.148;2022-12-17T17:04:43;-3.50;99.90
6210;DHT22;3138;52.550;13.148;2022-12-17T17:07:10;-3.50;99.90
6210;DHT22;3138;52.550;13.148;2022-12-17T17:09:37;-3.50;99.90
6210;DHT22;3138;52.550;13.148;2022-12-17T17:12:04;-3.50;99.90
6210;DHT22;3138;52.550;13.148;2022-12-17T17:14:32;-3.50;99.90
6210;DHT22;3138;52.550;13.148;2022-12-17T17:16:59;-3.50;99.90
6210;DHT22;3138;52.550;13.148;2022-12-17T17:19:26;-3.50;99.90
6210;DHT22;3138;52.550;13.148;2022-12-17T17:21:54;-3.60;99.90